createdAt,value
2018-07-14T00:01:01.913Z,7.83
2018-07-14T00:03:31.699Z,6.70
2018-07-14T00:06:01.743Z,7.43
2018-07-14T00:08:31.732Z,8.73
2018-07-14T00:11:01.616Z,6.70
2018-07-14T00:13:31.454Z,8.23
2018-07-14T00:16:01.356Z,7.37
2018-07-14T00:18:31.370Z,9.33
2018-07-14T00:21:01.190Z,9.80
2018-07-14T00:23:31.030Z,8.30
2018-07-14T00:26:03.134Z,10.07
2018-07-14T00:28:34.757Z,6.77
2018-07-14T00:31:04.725Z,6.20
2018-07-14T00:33:34.626Z,7.50
2018-07-14T00:36:04.870Z,9.37
2018-07-14T00:38:34.691Z,10.40
2018-07-14T00:41:04.686Z,7.57
2018-07-14T00:43:34.461Z,7.40
2018-07-14T00:46:04.621Z,9.17
2018-07-14T00:48:34.430Z,8.17
2018-07-14T00:51:04.394Z,9.00
2018-07-14T00:53:34.473Z,7.37
2018-07-14T00:56:04.295Z,8.10
2018-07-14T00:58:34.154Z,8.80
2018-07-14T01:01:03.933Z,12.90
2018-07-14T01:03:33.760Z,8.30
2018-07-14T01:06:03.479Z,7.97
2018-07-14T01:08:33.381Z,7.07
2018-07-14T01:11:03.437Z,7.67
2018-07-14T01:13:33.196Z,9.97
2018-07-14T01:16:03.056Z,7.87
2018-07-14T01:18:33.139Z,10.67
2018-07-14T01:21:02.968Z,8.70
2018-07-14T01:23:32.888Z,7.90
2018-07-14T01:26:02.724Z,7.90
2018-07-14T01:28:32.441Z,9.67
2018-07-14T01:31:02.299Z,7.40
2018-07-14T01:33:32.766Z,7.07
2018-07-14T01:36:02.725Z,7.90
2018-07-14T01:38:32.525Z,8.17
2018-07-14T01:41:02.367Z,8.00
2018-07-14T01:43:32.584Z,7.10
2018-07-14T01:46:02.502Z,7.10
2018-07-14T01:48:32.425Z,7.80
2018-07-14T01:51:02.363Z,10.10
2018-07-14T01:53:32.242Z,7.70
2018-07-14T01:56:02.177Z,8.47
2018-07-14T01:58:32.130Z,9.47
2018-07-14T02:01:02.024Z,9.20
2018-07-14T02:03:31.942Z,7.73
2018-07-14T02:06:02.002Z,9.27
2018-07-14T02:08:31.900Z,8.70
2018-07-14T02:11:01.913Z,7.53
2018-07-14T02:13:31.579Z,8.57
2018-07-14T02:16:01.519Z,7.27
2018-07-14T02:18:31.479Z,8.57
2018-07-14T02:21:01.519Z,9.37
2018-07-14T02:23:31.285Z,9.17
2018-07-14T02:26:01.212Z,8.30
2018-07-14T02:28:31.448Z,6.37
2018-07-14T02:31:01.465Z,10.50
2018-07-14T02:33:31.286Z,7.33
2018-07-14T02:36:01.057Z,7.83
2018-07-14T02:38:30.767Z,8.03
2018-07-14T02:41:00.654Z,7.07
2018-07-14T02:43:30.645Z,8.70
2018-07-14T02:46:00.601Z,9.13
2018-07-14T02:48:30.484Z,7.27
2018-07-14T02:51:00.557Z,6.60
2018-07-14T02:53:30.475Z,7.00
2018-07-14T02:56:00.473Z,7.53
2018-07-14T02:58:30.320Z,7.67
2018-07-14T03:01:00.277Z,7.00
2018-07-14T03:03:30.120Z,9.37
2018-07-14T03:06:00.079Z,8.47
2018-07-14T03:08:29.929Z,8.37
2018-07-14T03:10:59.972Z,9.63
2018-07-14T03:13:29.849Z,11.53
2018-07-14T03:15:59.848Z,10.40
2018-07-14T03:18:29.628Z,7.57
2018-07-14T03:20:59.589Z,8.57
2018-07-14T03:23:29.408Z,8.57
2018-07-14T03:25:59.270Z,8.13
2018-07-14T03:28:29.368Z,8.07
2018-07-14T03:30:59.184Z,9.47
2018-07-14T03:33:29.002Z,9.47
2018-07-14T03:35:58.884Z,10.57
2018-07-14T03:38:28.642Z,11.20
2018-07-14T03:40:58.543Z,9.37
2018-07-14T03:43:28.363Z,7.57
2018-07-14T03:45:58.461Z,7.90
2018-07-14T03:48:28.093Z,8.30
2018-07-14T03:50:58.009Z,7.67
2018-07-14T03:53:28.097Z,7.43
2018-07-14T03:55:58.078Z,7.50
2018-07-14T03:58:28.052Z,7.97
2018-07-14T04:00:58.094Z,10.50
2018-07-14T04:03:28.311Z,7.10
2018-07-14T04:05:58.209Z,6.33
2018-07-14T04:08:27.907Z,8.57
2018-07-14T04:10:57.769Z,8.67
2018-07-14T04:13:27.644Z,9.27
2018-07-14T04:15:57.605Z,7.17
2018-07-14T04:18:27.579Z,8.57
2018-07-14T04:20:57.437Z,6.43
2018-07-14T04:23:27.116Z,7.27
2018-07-14T04:25:57.359Z,7.73
2018-07-14T04:28:27.116Z,9.47
2018-07-14T04:30:57.039Z,11.30
2018-07-14T04:33:27.522Z,8.23
2018-07-14T04:35:57.519Z,9.87
2018-07-14T04:38:27.356Z,7.67
2018-07-14T04:40:57.383Z,7.20
2018-07-14T04:43:27.123Z,7.40
2018-07-14T04:45:56.922Z,8.50
2018-07-14T04:48:26.999Z,7.57
2018-07-14T04:50:56.715Z,5.90
2018-07-14T04:53:26.544Z,6.07
2018-07-14T04:55:56.483Z,5.90
2018-07-14T04:58:26.177Z,7.00
2018-07-14T05:00:56.378Z,6.23
2018-07-14T05:03:26.155Z,6.57
2018-07-14T05:05:56.232Z,5.57
2018-07-14T05:08:26.005Z,8.00
2018-07-14T05:10:56.101Z,6.40
2018-07-14T05:13:26.154Z,9.17
2018-07-14T05:15:56.080Z,6.67
2018-07-14T05:18:25.931Z,6.53
2018-07-14T05:20:55.749Z,6.57
2018-07-14T05:23:25.452Z,8.07
2018-07-14T05:25:55.269Z,6.60
2018-07-14T05:28:25.055Z,6.00
2018-07-14T05:30:54.833Z,7.07
2018-07-14T05:33:25.036Z,6.87
2018-07-14T05:35:55.918Z,7.20
2018-07-14T05:38:25.721Z,8.05
2018-07-14T05:40:56.752Z,8.03
2018-07-14T05:43:26.489Z,5.17
2018-07-14T05:45:57.795Z,5.92
2018-07-14T05:48:27.523Z,5.00
2018-07-14T05:50:59.119Z,5.15
2018-07-14T05:53:28.797Z,6.03
2018-07-14T05:55:59.836Z,5.47
2018-07-14T05:58:29.561Z,6.17
2018-07-14T06:01:00.079Z,4.90
2018-07-14T06:03:29.995Z,6.60
2018-07-14T06:05:59.754Z,6.10
2018-07-14T06:08:29.713Z,4.70
2018-07-14T06:10:59.601Z,5.12
2018-07-14T06:13:29.448Z,4.87
2018-07-14T06:15:59.476Z,8.00
2018-07-14T06:18:29.275Z,5.25
2018-07-14T06:20:58.987Z,5.55
2018-07-14T06:23:28.931Z,7.08
2018-07-14T06:25:58.881Z,5.22
2018-07-14T06:28:28.905Z,5.12
2018-07-14T06:30:58.942Z,5.20
2018-07-14T06:33:28.901Z,6.65
2018-07-14T06:35:58.773Z,4.75
2018-07-14T06:38:28.593Z,5.25
2018-07-14T06:40:58.336Z,5.08
2018-07-14T06:43:28.379Z,5.58
2018-07-14T06:45:58.818Z,6.67
2018-07-14T06:48:28.557Z,4.97
2018-07-14T06:50:58.341Z,4.83
2018-07-14T06:53:28.472Z,5.30
2018-07-14T08:12:09.084Z,6.35
2018-07-14T08:14:39.441Z,4.55
2018-07-14T08:17:09.458Z,4.78
2018-07-14T08:19:39.305Z,4.72
2018-07-14T08:22:09.356Z,4.12
2018-07-14T08:24:39.204Z,6.53
2018-07-14T08:27:09.360Z,5.87
2018-07-14T08:29:39.290Z,4.30
2018-07-14T08:32:09.122Z,5.20
2018-07-14T08:34:39.172Z,4.50
2018-07-14T08:37:09.765Z,5.47
2018-07-14T08:39:39.817Z,5.45
2018-07-14T08:42:10.091Z,4.08
2018-07-14T08:44:39.891Z,4.55
2018-07-14T08:47:10.143Z,4.05
2018-07-14T08:49:39.804Z,3.83
2018-07-14T08:52:09.714Z,4.17
2018-07-14T08:54:39.733Z,4.40
2018-07-14T10:46:49.546Z,2.35
2018-07-14T10:49:19.485Z,2.40
2018-07-14T10:51:49.379Z,2.37
2018-07-14T10:54:19.284Z,2.40
2018-07-14T10:56:49.058Z,2.22
2018-07-14T10:59:18.790Z,3.75
2018-07-14T11:01:49.394Z,2.95
2018-07-14T11:04:19.317Z,3.12
2018-07-14T11:06:49.348Z,2.75
2018-07-14T11:09:19.051Z,2.27
2018-07-14T11:11:49.049Z,3.47
2018-07-14T11:14:18.749Z,2.58
2018-07-14T11:16:48.759Z,2.80
2018-07-14T11:19:18.450Z,2.58
2018-07-14T11:21:48.399Z,3.75
2018-07-14T11:24:18.982Z,2.70
2018-07-14T11:26:49.163Z,2.65
2018-07-14T11:29:20.115Z,2.60
2018-07-14T11:31:51.816Z,2.42
2018-07-14T11:34:29.039Z,2.77
2018-07-14T11:37:16.319Z,2.60
2018-07-14T11:40:00.464Z,3.00
2018-07-14T11:42:48.792Z,2.40
2018-07-14T11:45:38.495Z,3.33
2018-07-14T11:48:09.025Z,3.02
2018-07-14T11:50:39.843Z,4.12
2018-07-14T11:53:09.705Z,2.65
2018-07-14T11:55:39.473Z,2.77
2018-07-14T11:58:09.652Z,2.20
2018-07-14T12:00:41.117Z,2.85
2018-07-14T12:03:11.721Z,2.92
2018-07-14T12:05:41.558Z,2.70
2018-07-14T12:08:11.079Z,2.95
2018-07-14T12:10:40.748Z,2.80
2018-07-14T12:13:10.772Z,3.02
2018-07-14T12:15:41.196Z,3.55
2018-07-14T12:18:27.547Z,2.62
2018-07-14T12:21:12.100Z,3.40
2018-07-14T12:23:42.935Z,3.17
2018-07-14T12:26:26.128Z,3.12
2018-07-14T12:28:58.888Z,2.80
2018-07-14T12:31:42.796Z,3.55
2018-07-14T12:34:25.958Z,2.92
2018-07-14T12:37:13.396Z,2.45
2018-07-14T12:40:06.164Z,2.80
2018-07-14T12:42:50.857Z,2.50
2018-07-14T12:45:29.909Z,3.20
2018-07-14T12:48:12.379Z,2.72
2018-07-14T12:50:58.969Z,4.22
2018-07-14T12:53:31.543Z,2.80
2018-07-14T12:56:09.881Z,3.87
2018-07-14T12:58:40.630Z,2.80
2018-07-14T13:01:24.224Z,3.25
2018-07-14T13:03:54.953Z,17.87
2018-07-14T13:06:27.177Z,6.83
2018-07-14T13:09:05.648Z,2.80
2018-07-14T13:11:35.620Z,8.93
2018-07-14T13:14:06.033Z,7.30
2018-07-14T13:16:41.829Z,2.87
2018-07-14T13:19:14.560Z,5.75
2018-07-14T13:21:44.427Z,3.65
2018-07-14T13:24:15.263Z,3.05
2018-07-14T13:26:46.475Z,1065.38
2018-07-14T13:29:15.991Z,1999.90
2018-07-14T13:31:47.921Z,102.50
2018-07-14T13:34:20.442Z,1356.10
2018-07-14T13:37:01.681Z,1999.90
2018-07-14T13:39:32.796Z,794.28
2018-07-14T13:42:20.363Z,521.67
2018-07-14T13:44:50.635Z,1036.05
2018-07-14T13:47:37.029Z,1728.93
2018-07-14T13:50:07.263Z,510.17
2018-07-14T13:52:37.238Z,197.10
2018-07-14T13:55:06.997Z,76.65
2018-07-14T13:57:37.232Z,124.22
2018-07-14T14:00:08.435Z,30.43
2018-07-14T14:02:52.146Z,13.32
2018-07-14T14:05:22.688Z,23.25
2018-07-14T14:07:52.462Z,3.87
2018-07-14T14:10:22.930Z,4.20
2018-07-14T14:12:53.833Z,11.28
2018-07-14T14:15:27.319Z,5.70
2018-07-14T14:17:57.238Z,4.05
2018-07-14T14:20:26.959Z,4.28
2018-07-14T14:22:56.863Z,3.90
2018-07-14T14:25:26.747Z,4.25
2018-07-14T14:27:56.814Z,8.05
2018-07-14T14:30:26.474Z,4.05
2018-07-14T14:32:56.469Z,3.95
2018-07-14T14:35:26.219Z,5.80
2018-07-14T14:37:56.238Z,5.37
2018-07-14T14:40:25.928Z,3.80
2018-07-14T14:42:55.811Z,3.50
2018-07-14T14:45:25.544Z,4.72
2018-07-14T14:47:55.352Z,6.37
2018-07-14T14:50:25.372Z,4.50
2018-07-14T14:52:55.161Z,3.87
2018-07-14T14:55:24.955Z,4.55
2018-07-14T14:57:54.970Z,8.55
2018-07-14T15:00:24.656Z,8.83
2018-07-14T15:02:54.705Z,11.83
2018-07-14T15:05:25.200Z,11.88
2018-07-14T15:07:55.078Z,10.50
2018-07-14T15:10:24.700Z,7.03
2018-07-14T15:12:54.834Z,9.45
2018-07-14T15:15:24.535Z,13.40
2018-07-14T15:17:54.383Z,9.40
2018-07-14T15:20:24.304Z,13.83
2018-07-14T15:22:54.394Z,11.22
2018-07-14T15:25:24.218Z,11.03
2018-07-14T15:27:54.314Z,9.38
2018-07-14T15:30:24.278Z,8.83
2018-07-14T15:32:54.230Z,8.23
2018-07-14T15:35:24.227Z,5.58
2018-07-14T15:37:54.061Z,7.95
2018-07-14T15:40:23.915Z,4.58
2018-07-14T15:42:53.876Z,5.33
2018-07-14T15:45:23.662Z,3.58
2018-07-14T15:47:53.688Z,4.50
2018-07-14T15:50:23.735Z,3.98
2018-07-14T15:52:53.868Z,4.12
2018-07-14T15:55:23.669Z,3.47
2018-07-14T15:57:53.716Z,3.40
2018-07-14T16:00:23.520Z,5.90
2018-07-14T16:02:57.096Z,4.37
2018-07-14T16:05:26.999Z,3.83
2018-07-14T16:07:56.922Z,4.60
2018-07-14T16:10:26.629Z,4.00
2018-07-14T16:12:56.537Z,4.90
2018-07-14T16:15:27.578Z,3.90
2018-07-14T16:17:58.578Z,2.92
2018-07-14T16:20:28.267Z,3.52
2018-07-14T16:22:58.074Z,3.83
2018-07-14T16:25:27.740Z,3.05
2018-07-14T16:27:57.690Z,3.95
2018-07-14T16:30:27.596Z,5.05
2018-07-14T16:32:57.977Z,3.15
2018-07-14T16:35:27.794Z,3.55
2018-07-14T16:37:57.505Z,4.10
2018-07-14T16:40:27.162Z,3.40
2018-07-14T16:42:57.018Z,3.55
2018-07-14T16:45:26.783Z,3.58
2018-07-14T16:47:56.861Z,3.50
2018-07-14T16:50:26.688Z,3.67
2018-07-14T16:52:56.593Z,3.72
2018-07-14T16:55:26.474Z,4.03
2018-07-14T16:57:56.267Z,4.42
2018-07-14T17:00:25.908Z,3.80
2018-07-14T17:02:55.750Z,4.12
2018-07-14T17:05:25.671Z,4.03
2018-07-14T17:07:55.406Z,6.97
2018-07-14T17:10:25.106Z,4.75
2018-07-14T17:12:54.880Z,4.58
2018-07-14T17:15:24.959Z,4.30
2018-07-14T17:17:54.762Z,4.17
2018-07-14T17:20:24.521Z,4.37
2018-07-14T17:22:54.546Z,5.35
2018-07-14T17:25:24.215Z,4.90
2018-07-14T17:27:53.995Z,5.25
2018-07-14T17:30:23.717Z,4.70
2018-07-14T17:32:53.595Z,5.10
2018-07-14T17:35:23.294Z,5.70
2018-07-14T17:37:53.408Z,4.85
2018-07-14T17:40:23.075Z,5.87
2018-07-14T17:42:53.057Z,4.80
2018-07-14T17:45:22.982Z,5.15
2018-07-14T17:47:52.981Z,4.80
2018-07-14T17:50:22.821Z,5.03
2018-07-14T17:52:52.722Z,4.05
2018-07-14T17:55:22.381Z,4.45
2018-07-14T17:57:52.135Z,4.75
2018-07-14T18:00:21.833Z,5.40
2018-07-14T18:02:51.679Z,5.42
2018-07-14T18:05:21.743Z,5.20
2018-07-14T18:07:51.833Z,5.92
2018-07-14T18:10:24.869Z,5.90
2018-07-14T18:12:54.696Z,5.53
2018-07-14T18:15:24.373Z,5.85
2018-07-14T18:17:54.338Z,5.00
2018-07-14T18:20:24.076Z,5.40
2018-07-14T18:22:54.320Z,5.70
2018-07-14T18:25:24.116Z,6.10
2018-07-14T18:27:54.037Z,8.58
2018-07-14T18:30:23.794Z,5.95
2018-07-14T18:32:53.553Z,6.25
2018-07-14T18:35:23.312Z,6.58
2018-07-14T18:37:53.078Z,6.47
2018-07-14T18:40:23.040Z,5.85
2018-07-14T18:42:52.872Z,5.92
2018-07-14T18:45:22.353Z,6.08
2018-07-14T18:47:52.189Z,7.95
2018-07-14T18:50:22.704Z,7.97
2018-07-14T18:52:52.900Z,6.65
2018-07-14T18:55:22.620Z,6.08
2018-07-14T18:57:52.455Z,8.53
2018-07-14T19:00:22.116Z,6.15
2018-07-14T19:02:52.098Z,6.80
2018-07-14T19:05:21.973Z,6.70
2018-07-14T19:11:05.314Z,7.17
2018-07-14T19:13:35.777Z,6.90
2018-07-14T19:16:05.615Z,3.77
2018-07-14T19:18:35.597Z,8.53
2018-07-14T19:21:05.549Z,4.00
2018-07-14T19:23:35.499Z,3.55
2018-07-14T19:26:05.339Z,3.72
2018-07-14T19:28:35.380Z,3.77
2018-07-14T19:31:05.124Z,2.42
2018-07-14T19:33:35.032Z,5.67
2018-07-14T19:36:04.973Z,3.65
2018-07-14T19:38:34.811Z,4.33
2018-07-14T19:41:04.723Z,6.33
2018-07-14T19:49:18.302Z,4.40
2018-07-14T19:51:49.138Z,2.77
2018-07-14T19:54:22.440Z,4.55
2018-07-14T19:56:57.540Z,2.67
2018-07-14T19:59:30.979Z,3.50
2018-07-14T20:02:03.259Z,4.65
2018-07-14T20:04:34.309Z,3.95
2018-07-14T20:07:05.952Z,5.37
2018-07-14T20:09:35.975Z,3.75
2018-07-14T20:12:05.941Z,3.37
2018-07-14T20:14:35.979Z,4.55
2018-07-14T20:17:06.656Z,4.33
2018-07-14T20:19:36.635Z,3.45
2018-07-14T20:22:06.483Z,3.37
2018-07-14T20:24:36.330Z,7.30
2018-07-14T20:27:06.790Z,4.60
2018-07-14T20:29:36.745Z,7.00
2018-07-14T20:32:06.644Z,6.30
2018-07-14T20:34:36.535Z,7.22
2018-07-14T20:37:06.376Z,6.00
2018-07-14T20:39:36.252Z,5.28
2018-07-14T20:42:06.105Z,6.10
2018-07-14T20:44:36.162Z,5.25
2018-07-14T20:47:05.995Z,5.37
2018-07-14T20:49:35.894Z,6.53
2018-07-14T20:52:05.696Z,4.40
2018-07-14T20:54:35.589Z,4.95
2018-07-14T20:57:05.374Z,5.53
2018-07-14T20:59:35.267Z,5.65
2018-07-14T21:02:05.201Z,4.58
2018-07-14T21:04:35.082Z,5.92
2018-07-14T21:07:04.841Z,3.55
2018-07-14T21:09:34.654Z,6.05
2018-07-14T21:12:04.573Z,6.08
2018-07-14T21:14:34.316Z,5.08
2018-07-14T21:17:04.128Z,6.37
2018-07-14T21:19:34.020Z,4.80
2018-07-14T21:22:03.922Z,7.85
2018-07-14T21:24:33.858Z,4.95
2018-07-14T21:27:03.696Z,4.80
2018-07-14T21:29:33.641Z,7.80
2018-07-14T21:32:03.337Z,5.78
2018-07-14T21:34:33.459Z,7.72
2018-07-14T21:37:03.274Z,6.42
2018-07-14T21:39:33.194Z,7.05
2018-07-14T21:42:02.997Z,4.10
2018-07-14T21:44:33.055Z,5.10
2018-07-14T21:47:02.834Z,5.97
2018-07-14T21:49:32.756Z,4.85
2018-07-14T21:52:02.543Z,4.50
2018-07-14T21:54:32.476Z,3.72
2018-07-14T21:57:02.218Z,3.47
2018-07-14T21:59:32.283Z,3.92
2018-07-14T22:02:05.319Z,4.00
2018-07-14T22:04:36.911Z,4.67
2018-07-14T22:07:06.691Z,3.40
2018-07-14T22:09:36.645Z,3.85
2018-07-14T22:12:06.535Z,3.75
2018-07-14T22:14:36.437Z,3.60
2018-07-14T22:17:06.296Z,5.28
2018-07-14T22:19:36.253Z,5.60
2018-07-14T22:22:06.182Z,5.78
2018-07-14T22:24:35.979Z,7.17
2018-07-14T22:27:05.952Z,4.72
2018-07-14T22:29:36.023Z,3.65
2018-07-14T22:32:05.846Z,4.53
2018-07-14T22:34:35.964Z,3.83
2018-07-14T22:37:05.856Z,4.92
2018-07-14T22:39:35.907Z,4.90
2018-07-14T22:42:05.866Z,4.95
2018-07-14T22:44:35.896Z,3.25
2018-07-14T22:47:05.735Z,3.60
2018-07-14T22:49:35.573Z,5.05
2018-07-14T22:52:05.353Z,3.80
2018-07-14T22:54:35.276Z,6.22
2018-07-14T22:57:05.055Z,4.12
2018-07-14T22:59:34.996Z,3.72
2018-07-14T23:02:04.890Z,4.35
2018-07-14T23:04:34.673Z,4.70
2018-07-14T23:07:04.559Z,5.50
2018-07-14T23:09:35.110Z,4.42
2018-07-14T23:12:04.967Z,3.85
2018-07-14T23:14:34.975Z,4.28
2018-07-14T23:17:04.655Z,4.65
2018-07-14T23:19:34.482Z,8.23
2018-07-14T23:22:04.219Z,4.12
2018-07-14T23:24:34.085Z,9.88
2018-07-14T23:27:03.812Z,5.58
2018-07-14T23:29:33.699Z,3.92
2018-07-14T23:32:03.519Z,4.33
2018-07-14T23:34:33.387Z,5.20
2018-07-14T23:37:03.064Z,4.10
2018-07-14T23:39:32.964Z,6.28
2018-07-14T23:42:02.844Z,3.83
2018-07-14T23:44:32.739Z,4.05
2018-07-14T23:47:02.473Z,5.17
2018-07-14T23:49:32.248Z,7.08
2018-07-14T23:52:02.054Z,5.92
2018-07-14T23:54:32.101Z,5.25
2018-07-14T23:57:01.914Z,6.15
2018-07-14T23:59:31.833Z,4.75
